CheckWX is a tool to help pilots better visualize weather data.  It is not intended as a substitute for an official pre-flight weather briefing.

14:13:59 UTC

KTIW METAR
Tacoma Narrows Airport
Tacoma, Washington, USA
Current

21 mins ago

KTIW 221353Z AUTO 14005KT 10SM BKN095 BKN110 07/05 A3029 RMK AO2 SLP257 T00720050
Observed
Apr-22 @ 13:53 UTC
Wind
  • 140° at 5 KTS
Visibility
10 SM
Flight Rules
VFR
Cloud Levels
  • Broken at 9,500' AGL
  • Broken at 11,000' AGL
Temperature
C / 45°F
Dewpoint
C / 41°F
Humidity
87%
Altimeter
30.29" Hg
Pressure
1025.72 hPa
Previous

1 hour ago

KTIW 221253Z AUTO 00000KT 10SM OVC075 07/04 A3029 RMK AO2 SLP259 T00720044
Observed
Apr-22 @ 12:53 UTC
Visibility
10 SM
Flight Rules
VFR
Cloud Levels
  • Overcast at 7,500' AGL
Temperature
C / 45°F
Dewpoint
C / 39°F
Humidity
81%
Altimeter
30.29" Hg
Pressure
1025.72 hPa
Previous

2 hours ago

KTIW 221153Z AUTO 17003KT 10SM OVC095 06/04 A3027 RMK AO2 SLP253 T00610044 10094 20061 55013
Observed
Apr-22 @ 11:53 UTC
Wind
  • 170° at 3 KTS
Visibility
10 SM
Flight Rules
VFR
Cloud Levels
  • Overcast at 9,500' AGL
Temperature
C / 43°F
Dewpoint
C / 39°F
Humidity
87%
Altimeter
30.27" Hg
Pressure
1025.02 hPa